Nearby METAR Reports

 

TNCA - Queen Beatrix, Lesser Antilles
Distance from station: 0 0km
Updated: 20/04/2018 03:00
NOT Current
Few Clouds
Few Clouds
 Wind from E
Wind: E 33 km/h
Temperature: 27°C
Heat Index: 31°C
Dew Point: 24°C
Humidity: 84%
Barometer: 1013 hPa
Clouds: Few Clouds
Visibility: 10 km
Cloud details: Few Clouds 549 m
2018/04/20 07:00 TNCA 200700Z 09018KT 9999 FEW018 27/24 Q1013 A2992 NOSIG
SVJC - Paraguana/Josefa, Venezuela
Distance from station: S 83km
Updated: 05/12/2017 15:00
NOT Current

 
2017/12/05 19:00 SVJC 051900Z NL
 
TNCC - Hato Air Curacao, Lesser Antilles
Distance from station: ESE 117km
Updated: 20/04/2018 03:00
NOT Current
Mostly Cloudy
Mostly Cloudy
 Wind from ESE
Wind: ESE 22 km/h
Temperature: 26°C
Dew Point: 22°C
Humidity: 79%
Barometer: 1014 hPa
Clouds: Mostly Cloudy
Visibility: 10 km
Cloud details: Mostly Cloudy 610 m
2018/04/20 07:00 TNCC 200700Z 11012KT 070V130 9999 BKN020 26/22 Q1014 NOSIG
SVCR - Coro/Jose Leonar, Venezuela
Distance from station: SSE 126km
Updated: 20/04/2018 02:00
NOT Current
Partly Cloudy
Partly Cloudy
 Wind from varies
Wind: varies 0 km/h
Temperature: 26°C
Dew Point: 21°C
Humidity: 74%
Barometer: 1013 hPa
Clouds: Partly Cloudy
Visibility: 10 km
Cloud details: Partly Cloudy 396 m
2018/04/20 06:00 SVCR 200600Z /////KT 9999 SCT013 26/21 Q1013
 
TNCB - Bonaire/Flamingo, Lesser Antilles
Distance from station: ESE 191km
Updated: 20/04/2018 03:55
Mostly Cloudy
Mostly Cloudy
 Wind from E
Wind: E 30 km/h
Temperature: 26°C
Dew Point: 23°C
Humidity: 84%
Barometer: 1014 hPa
Clouds: Mostly Cloudy
Visibility: 10 km
Cloud details: Few Clouds 549 m
Partly Cloudy 853 m
Mostly Cloudy 1006 m
2018/04/20 07:55 TNCB 200755Z AUTO 08016KT 060V120 9999 // FEW018/// SCT028/// BKN033/// 26/23 Q1014 RE//
SVMC - Maracaibo/La Chi, Venezuela
Distance from station: SW 285km
Updated: 22/01/2018 08:00
NOT Current
Partly Cloudy
Partly Cloudy
 Wind from calm
Wind: Calm
Temperature: 23°C
Dew Point: 21°C
Humidity: 89%
Barometer: 1011 hPa
Clouds: Partly Cloudy
Visibility: 10 km
Cloud details: Partly Cloudy 396 m
2018/01/22 12:00 SVMC 221200Z 00000KT 9999 SCT013 23/21 Q1011